createdAt,value
2022-10-12T00:03:14.174Z,4.13
2022-10-12T00:08:21.191Z,3.97
2022-10-12T00:13:28.058Z,4.13
2022-10-12T00:18:38.132Z,4.15
2022-10-12T00:23:46.981Z,4.10
2022-10-12T00:28:58.688Z,3.50
2022-10-12T00:34:06.717Z,3.70
2022-10-12T00:39:13.590Z,4.50
2022-10-12T00:44:43.641Z,3.75
2022-10-12T00:49:57.993Z,4.07
2022-10-12T00:55:06.427Z,4.90
2022-10-12T01:00:15.118Z,4.03
2022-10-12T01:05:24.618Z,3.80
2022-10-12T01:10:35.085Z,3.90
2022-10-12T01:15:49.249Z,4.18
2022-10-12T01:21:23.060Z,4.65
2022-10-12T01:27:18.262Z,5.32
2022-10-12T01:32:32.599Z,4.22
2022-10-12T01:37:50.702Z,4.50
2022-10-12T01:42:57.688Z,3.95
2022-10-12T01:48:06.426Z,4.85
2022-10-12T01:53:29.635Z,4.55
2022-10-12T01:58:56.577Z,4.97
2022-10-12T02:04:12.711Z,4.85
2022-10-12T02:09:27.730Z,3.70
2022-10-12T02:14:40.173Z,3.88
2022-10-12T02:19:52.640Z,4.93
2022-10-12T02:25:01.636Z,4.35
2022-10-12T02:30:13.199Z,3.90
2022-10-12T02:35:29.448Z,4.38
2022-10-12T02:40:40.117Z,3.50
2022-10-12T02:45:49.876Z,4.10
2022-10-12T02:51:00.729Z,4.70
2022-10-12T02:56:09.482Z,4.05
2022-10-12T03:01:17.354Z,4.75
2022-10-12T03:06:25.330Z,4.50
2022-10-12T03:11:31.351Z,4.18
2022-10-12T03:16:37.565Z,4.10
2022-10-12T03:21:44.924Z,5.72
2022-10-12T03:31:59.188Z,4.90
2022-10-12T03:37:06.487Z,5.43
2022-10-12T03:42:12.251Z,5.50
2022-10-12T03:47:22.106Z,5.75
2022-10-12T03:52:30.343Z,5.47
2022-10-12T03:57:37.275Z,5.15
2022-10-12T04:02:43.595Z,6.15
2022-10-12T04:07:50.890Z,4.75
2022-10-12T04:12:56.793Z,5.78
2022-10-12T04:18:02.751Z,5.40
2022-10-12T04:23:10.200Z,5.63
2022-10-12T04:28:17.080Z,7.38
2022-10-12T04:33:23.142Z,6.15
2022-10-12T04:38:30.537Z,7.40
2022-10-12T04:43:36.374Z,7.32
2022-10-12T04:48:42.336Z,5.88
2022-10-12T04:53:49.785Z,6.45
2022-10-12T05:07:07.562Z,8.55
2022-10-12T05:13:05.211Z,8.25
2022-10-12T05:18:36.072Z,7.05
2022-10-12T05:23:43.802Z,9.50
2022-10-12T05:28:52.310Z,8.73
2022-10-12T05:34:47.869Z,9.07
2022-10-12T05:40:20.852Z,10.80
2022-10-12T05:45:54.064Z,8.18
2022-10-12T05:51:29.170Z,8.63
2022-10-12T05:57:06.736Z,8.50
2022-10-12T06:02:17.635Z,8.45
2022-10-12T06:08:13.880Z,10.88
2022-10-12T06:13:47.814Z,9.70
2022-10-12T06:19:24.289Z,9.38
2022-10-12T06:24:57.209Z,10.70
2022-10-12T06:30:04.292Z,9.82
2022-10-12T06:35:13.522Z,9.05
2022-10-12T06:41:39.488Z,8.88
2022-10-12T06:54:01.783Z,11.25
2022-10-12T06:59:13.186Z,9.13
2022-10-12T07:04:19.780Z,9.38
2022-10-12T07:09:32.160Z,9.90
2022-10-12T07:14:42.180Z,10.23
2022-10-12T07:20:18.120Z,12.52
2022-10-12T07:25:28.092Z,10.40
2022-10-12T07:31:03.556Z,10.70
2022-10-12T07:36:14.731Z,11.82
2022-10-12T07:41:25.840Z,11.07
2022-10-12T07:46:32.622Z,10.45
2022-10-12T07:51:46.690Z,9.70
2022-10-12T07:58:09.055Z,10.68
2022-10-12T08:03:42.074Z,9.82
2022-10-12T08:08:48.941Z,9.93
2022-10-12T08:13:56.352Z,8.38
2022-10-12T08:19:06.521Z,9.65
2022-10-12T08:24:18.024Z,8.52
2022-10-12T08:29:28.493Z,7.60
2022-10-12T08:35:29.376Z,8.15
2022-10-12T08:41:08.911Z,7.60
2022-10-12T08:53:59.369Z,6.55
2022-10-12T08:59:31.564Z,5.80
2022-10-12T09:05:05.724Z,5.55
2022-10-12T09:10:46.399Z,6.35
2022-10-12T09:16:01.670Z,5.57
2022-10-12T09:21:15.409Z,5.45
2022-10-12T09:27:18.519Z,5.70
2022-10-12T09:32:54.204Z,4.75
2022-10-12T09:38:26.106Z,5.30
2022-10-12T09:43:34.301Z,4.55
2022-10-12T09:48:57.291Z,5.23
2022-10-12T09:54:08.781Z,4.05
2022-10-12T10:00:34.650Z,3.70
2022-10-12T10:06:32.830Z,3.00
2022-10-12T10:12:15.746Z,2.28
2022-10-12T10:17:28.995Z,2.40
2022-10-12T10:22:37.251Z,2.75
2022-10-12T10:28:24.311Z,2.22
2022-10-12T10:33:36.867Z,2.80
2022-10-12T10:38:59.531Z,2.75
2022-10-12T10:44:07.286Z,2.50
2022-10-12T10:49:32.277Z,1.92
2022-10-12T10:55:18.220Z,2.30
2022-10-12T11:00:41.134Z,2.67
2022-10-12T11:06:21.021Z,2.22
2022-10-12T11:11:38.170Z,2.20
2022-10-12T11:16:51.192Z,2.40
2022-10-12T11:22:31.452Z,1.98
2022-10-12T11:28:04.285Z,1.80
2022-10-12T11:33:17.212Z,2.03
2022-10-12T11:39:21.823Z,1.85
2022-10-12T11:45:04.198Z,1.98
2022-10-12T11:50:31.026Z,1.70
2022-10-12T11:56:09.764Z,1.65
2022-10-12T12:01:54.060Z,1.73
2022-10-12T12:08:13.951Z,1.42
2022-10-12T12:13:45.369Z,1.50
2022-10-12T12:19:42.067Z,1.50
2022-10-12T12:25:06.788Z,1.30
2022-10-12T12:30:41.129Z,1.40
2022-10-12T12:35:59.912Z,1.45
2022-10-12T12:41:14.059Z,1.38
2022-10-12T12:53:19.051Z,1.70
2022-10-12T13:13:16.598Z,1.60
2022-10-12T13:18:49.242Z,1.77
2022-10-12T13:24:04.853Z,1.50
2022-10-12T13:29:23.487Z,1.60
2022-10-12T13:34:36.714Z,1.23
2022-10-12T13:39:47.234Z,1.20
2022-10-12T13:44:55.139Z,1.00
2022-10-12T13:50:01.490Z,0.88
2022-10-12T13:55:18.380Z,1.17
2022-10-12T14:00:27.921Z,1.20
2022-10-12T14:05:35.604Z,0.93
2022-10-12T14:10:44.798Z,0.70
2022-10-12T14:15:52.438Z,2.15
2022-10-12T14:21:12.331Z,1.10
2022-10-12T14:26:30.915Z,2.85
2022-10-12T14:31:53.406Z,3.55
2022-10-12T14:37:06.167Z,4.35
2022-10-12T14:42:22.873Z,3.65
2022-10-12T14:47:33.618Z,2.88
2022-10-12T14:52:44.538Z,3.42
2022-10-12T14:57:51.990Z,4.20
2022-10-12T15:03:00.106Z,5.07
2022-10-12T15:08:09.345Z,5.90
2022-10-12T15:18:22.883Z,7.45
2022-10-12T15:23:29.006Z,8.77
2022-10-12T15:28:35.245Z,9.45
2022-10-12T15:33:44.052Z,9.02
2022-10-12T15:43:55.703Z,5.57
2022-10-12T15:49:03.343Z,8.15
2022-10-12T15:54:09.580Z,8.15
2022-10-12T15:59:15.634Z,8.18
2022-10-12T16:04:23.385Z,7.93
2022-10-12T16:09:29.346Z,7.53
2022-10-12T16:14:35.470Z,7.38
2022-10-12T16:19:43.045Z,9.35
2022-10-12T16:24:49.095Z,12.15
2022-10-12T16:29:55.080Z,8.68
2022-10-12T16:35:02.545Z,9.23
2022-10-12T16:40:11.650Z,8.57
2022-10-12T16:45:17.811Z,9.45
2022-10-12T16:50:27.052Z,10.70
2022-10-12T16:55:33.075Z,9.10
2022-10-12T17:00:40.467Z,6.75
2022-10-12T17:05:48.294Z,9.20
2022-10-12T17:10:54.280Z,14.90
2022-10-12T17:16:14.082Z,10.88
2022-10-12T17:21:21.519Z,17.15
2022-10-12T17:26:28.595Z,13.07
2022-10-12T17:31:35.549Z,14.48
2022-10-12T17:36:43.064Z,12.27
2022-10-12T17:41:49.841Z,16.95
2022-10-12T17:46:55.992Z,24.05
2022-10-12T17:52:04.347Z,24.90
2022-10-12T17:57:11.268Z,16.47
2022-10-12T18:02:17.935Z,20.20
2022-10-12T18:07:27.755Z,23.45
2022-10-12T18:12:36.372Z,28.20
2022-10-12T18:17:43.041Z,26.65
2022-10-12T18:22:51.246Z,26.00
2022-10-12T18:27:57.420Z,27.60
2022-10-12T18:33:04.164Z,28.77
2022-10-12T18:38:14.991Z,28.55
2022-10-12T18:43:23.004Z,28.20
2022-10-12T18:48:31.220Z,27.05
2022-10-12T18:53:39.952Z,29.77
2022-10-12T18:58:46.869Z,31.73
2022-10-12T19:03:55.292Z,29.38
2022-10-12T19:09:03.731Z,31.92
2022-10-12T19:14:14.938Z,29.63
2022-10-12T19:19:22.012Z,40.45
2022-10-12T19:24:30.016Z,42.20
2022-10-12T19:29:37.101Z,44.42
2022-10-12T19:34:43.981Z,54.20
2022-10-12T19:39:53.292Z,44.80
2022-10-12T19:45:03.391Z,40.08
2022-10-12T19:50:11.315Z,45.42
2022-10-12T19:55:20.257Z,44.70
2022-10-12T20:00:27.526Z,45.85
2022-10-12T20:05:34.885Z,44.92
2022-10-12T20:10:43.144Z,47.97
2022-10-12T20:15:54.425Z,45.30
2022-10-12T20:21:02.300Z,47.47
2022-10-12T20:26:12.521Z,43.30
2022-10-12T20:31:19.709Z,43.75
2022-10-12T20:36:28.417Z,41.92
2022-10-12T20:41:36.018Z,48.33
2022-10-12T20:46:44.653Z,49.67
2022-10-12T20:51:51.655Z,50.97
2022-10-12T20:57:00.644Z,50.45
2022-10-12T21:02:06.830Z,51.83
2022-10-12T21:07:17.565Z,48.80
2022-10-12T21:12:25.304Z,55.08
2022-10-12T21:17:31.346Z,50.80
2022-10-12T21:22:37.523Z,48.05
2022-10-12T21:27:46.241Z,45.50
2022-10-12T21:32:52.319Z,38.60
2022-10-12T21:37:58.265Z,43.28
2022-10-12T21:43:05.811Z,35.15
2022-10-12T21:48:11.867Z,31.27
2022-10-12T21:53:18.547Z,27.77
2022-10-12T21:58:26.285Z,37.58
2022-10-12T22:03:33.055Z,31.77
2022-10-12T22:08:39.130Z,30.35
2022-10-12T22:13:54.782Z,29.85
2022-10-12T22:19:01.973Z,29.27
2022-10-12T22:24:14.209Z,22.85
2022-10-12T22:29:21.779Z,21.35
2022-10-12T22:34:28.866Z,23.33
2022-10-12T22:39:34.978Z,25.00
2022-10-12T22:44:42.475Z,26.33
2022-10-12T22:49:48.754Z,24.80
2022-10-12T22:54:55.062Z,24.88
2022-10-12T23:00:02.812Z,24.45
2022-10-12T23:10:18.174Z,23.50
2022-10-12T23:15:25.869Z,17.67
2022-10-12T23:20:32.389Z,18.42
2022-10-12T23:25:40.906Z,19.05
2022-10-12T23:30:49.491Z,20.95
2022-10-12T23:36:00.161Z,21.48
2022-10-12T23:41:07.178Z,18.98
2022-10-12T23:46:14.990Z,18.00
2022-10-12T23:51:22.113Z,18.75
2022-10-12T23:56:28.527Z,15.00
